createdAt,value
2023-02-12T00:00:09.522Z,11.10
2023-02-12T00:02:44.478Z,10.57
2023-02-12T00:05:16.734Z,10.30
2023-02-12T00:07:46.101Z,9.50
2023-02-12T00:10:15.447Z,9.97
2023-02-12T00:12:44.772Z,8.70
2023-02-12T00:15:14.166Z,8.10
2023-02-12T00:17:43.487Z,9.17
2023-02-12T00:20:13.283Z,8.17
2023-02-12T00:22:44.139Z,9.40
2023-02-12T00:25:14.387Z,9.63
2023-02-12T00:27:43.706Z,9.43
2023-02-12T00:30:13.551Z,9.90
2023-02-12T00:32:42.884Z,10.47
2023-02-12T00:35:12.243Z,9.43
2023-02-12T00:37:42.750Z,10.33
2023-02-12T00:40:14.272Z,9.53
2023-02-12T00:42:43.696Z,9.20
2023-02-12T00:45:13.136Z,10.13
2023-02-12T00:47:42.793Z,10.13
2023-02-12T00:50:12.527Z,10.27
2023-02-12T00:52:43.257Z,9.17
2023-02-12T00:55:14.056Z,9.70
2023-02-12T00:57:43.515Z,9.50
2023-02-12T01:00:13.570Z,10.40
2023-02-12T01:02:42.911Z,10.13
2023-02-12T01:05:12.226Z,10.40
2023-02-12T01:07:41.709Z,9.40
2023-02-12T01:10:11.461Z,9.77
2023-02-12T01:12:42.343Z,9.83
2023-02-12T01:15:12.785Z,10.83
2023-02-12T01:17:42.051Z,10.37
2023-02-12T01:20:13.825Z,9.73
2023-02-12T01:22:43.257Z,9.47
2023-02-12T01:25:12.835Z,9.20
2023-02-12T01:27:43.813Z,8.30
2023-02-12T01:30:15.486Z,7.77
2023-02-12T01:32:45.059Z,8.63
2023-02-12T01:35:14.435Z,8.07
2023-02-12T01:37:44.101Z,8.33
2023-02-12T01:40:16.312Z,7.73
2023-02-12T01:42:49.321Z,7.90
2023-02-12T01:45:41.535Z,8.70
2023-02-12T01:48:11.228Z,9.10
2023-02-12T01:50:41.046Z,8.80
2023-02-12T01:53:10.860Z,8.70
2023-02-12T01:55:40.272Z,8.60
2023-02-12T01:58:11.653Z,9.63
2023-02-12T02:00:41.960Z,9.80
2023-02-12T02:03:11.657Z,8.77
2023-02-12T02:05:45.254Z,8.37
2023-02-12T02:08:14.806Z,8.60
2023-02-12T02:10:44.103Z,7.50
2023-02-12T02:13:32.103Z,9.03
2023-02-12T02:16:03.161Z,8.70
2023-02-12T02:18:35.863Z,8.30
2023-02-12T02:21:26.193Z,8.43
2023-02-12T02:24:09.900Z,8.37
2023-02-12T02:26:52.334Z,9.23
2023-02-12T02:29:37.688Z,9.37
2023-02-12T02:32:10.749Z,8.37
2023-02-12T02:34:42.183Z,8.53
2023-02-12T02:37:16.590Z,8.87
2023-02-12T02:39:49.798Z,9.10
2023-02-12T02:42:21.174Z,8.50
2023-02-12T02:44:53.374Z,8.30
2023-02-12T02:47:26.336Z,8.93
2023-02-12T02:49:58.665Z,7.90
2023-02-12T02:52:31.016Z,7.77
2023-02-12T02:55:03.579Z,7.63
2023-02-12T02:57:34.108Z,7.07
2023-02-12T03:00:07.791Z,7.00
2023-02-12T03:02:40.642Z,7.10
2023-02-12T03:05:11.964Z,6.77
2023-02-12T03:07:44.211Z,7.50
2023-02-12T03:10:16.337Z,7.23
2023-02-12T03:12:48.829Z,7.20
2023-02-12T03:15:20.415Z,7.10
2023-02-12T03:17:52.128Z,6.87
2023-02-12T03:20:23.260Z,7.90
2023-02-12T03:22:55.037Z,7.70
2023-02-12T03:25:28.248Z,6.53
2023-02-12T03:28:01.807Z,7.00
2023-02-12T03:30:39.496Z,6.90
2023-02-12T03:33:16.280Z,6.50
2023-02-12T03:35:49.533Z,6.97
2023-02-12T03:38:23.332Z,8.90
2023-02-12T03:40:57.258Z,7.53
2023-02-12T03:43:28.243Z,7.90
2023-02-12T03:45:59.800Z,8.67
2023-02-12T03:48:32.938Z,7.70
2023-02-12T03:51:05.046Z,8.73
2023-02-12T03:53:34.683Z,8.80
2023-02-12T03:56:06.765Z,10.47
2023-02-12T03:58:37.691Z,9.60
2023-02-12T04:01:07.367Z,10.00
2023-02-12T04:03:38.430Z,9.50
2023-02-12T04:06:08.043Z,10.67
2023-02-12T04:08:37.301Z,10.60
2023-02-12T04:11:10.429Z,9.90
2023-02-12T04:13:44.482Z,9.90
2023-02-12T04:16:20.024Z,10.57
2023-02-12T04:18:51.844Z,10.63
2023-02-12T04:21:26.404Z,10.00
2023-02-12T04:24:01.302Z,10.23
2023-02-12T04:26:36.778Z,9.60
2023-02-12T04:29:10.520Z,9.17
2023-02-12T04:31:41.854Z,9.33
2023-02-12T04:34:16.824Z,9.07
2023-02-12T04:36:48.991Z,8.47
2023-02-12T04:39:21.000Z,7.67
2023-02-12T04:41:51.381Z,7.27
2023-02-12T04:44:21.979Z,7.43
2023-02-12T04:46:51.490Z,7.47
2023-02-12T04:49:23.595Z,8.10
2023-02-12T04:51:53.409Z,7.80
2023-02-12T04:54:23.589Z,7.33
2023-02-12T04:56:53.777Z,7.97
2023-02-12T04:59:23.166Z,8.23
2023-02-12T05:01:52.434Z,7.47
2023-02-12T05:04:23.501Z,8.33
2023-02-12T05:06:52.917Z,8.63
2023-02-12T05:09:22.687Z,8.23
2023-02-12T05:11:52.079Z,8.80
2023-02-12T05:14:21.400Z,7.77
2023-02-12T05:16:50.830Z,8.80
2023-02-12T05:19:20.199Z,8.87
2023-02-12T05:21:51.777Z,8.47
2023-02-12T05:24:21.144Z,9.47
2023-02-12T05:26:50.721Z,9.50
2023-02-12T05:29:20.185Z,9.33
2023-02-12T05:31:49.641Z,9.23
2023-02-12T05:34:19.056Z,9.83
2023-02-12T05:36:48.274Z,9.43
2023-02-12T05:39:19.098Z,8.70
2023-02-12T05:41:48.423Z,10.10
2023-02-12T05:44:17.832Z,11.07
2023-02-12T05:46:47.519Z,11.80
2023-02-12T05:49:16.928Z,12.20
2023-02-12T05:51:46.260Z,12.33
2023-02-12T05:54:15.478Z,12.50
2023-02-12T05:56:47.096Z,11.13
2023-02-12T05:59:17.905Z,11.57
2023-02-12T06:01:48.006Z,12.40
2023-02-12T06:04:18.547Z,11.50
2023-02-12T06:06:47.965Z,12.17
2023-02-12T06:09:17.317Z,12.30
2023-02-12T06:11:48.199Z,13.37
2023-02-12T06:14:18.135Z,12.63
2023-02-12T06:16:48.221Z,11.97
2023-02-12T06:19:17.942Z,13.40
2023-02-12T06:21:47.569Z,12.53
2023-02-12T06:24:18.281Z,11.10
2023-02-12T06:26:51.358Z,10.10
2023-02-12T06:29:21.030Z,9.00
2023-02-12T06:31:50.670Z,8.93
2023-02-12T06:34:20.177Z,8.97
2023-02-12T06:36:49.912Z,8.60
2023-02-12T06:39:19.815Z,8.07
2023-02-12T06:41:50.644Z,8.27
2023-02-12T06:44:19.970Z,8.50
2023-02-12T06:46:49.280Z,8.90
2023-02-12T06:49:19.053Z,9.80
2023-02-12T06:51:48.420Z,9.00
2023-02-12T06:54:18.899Z,10.00
2023-02-12T06:56:48.172Z,9.57
2023-02-12T06:59:19.246Z,8.10
2023-02-12T07:01:48.526Z,9.00
2023-02-12T07:04:18.045Z,9.17
2023-02-12T07:06:48.109Z,9.50
2023-02-12T07:09:17.346Z,9.00
2023-02-12T07:11:46.796Z,9.13
2023-02-12T07:14:17.026Z,7.40
2023-02-12T07:16:48.053Z,8.83
2023-02-12T07:19:18.308Z,9.83
2023-02-12T07:21:47.718Z,11.67
2023-02-12T07:24:18.412Z,14.20
2023-02-12T07:26:47.729Z,13.13
2023-02-12T07:29:17.433Z,12.30
2023-02-12T07:31:48.460Z,13.50
2023-02-12T07:34:17.832Z,13.30
2023-02-12T07:36:47.153Z,15.07
2023-02-12T07:39:16.505Z,14.43
2023-02-12T07:41:45.825Z,15.37
2023-02-12T07:44:15.417Z,13.90
2023-02-12T07:46:48.319Z,14.20
2023-02-12T07:49:20.350Z,15.47
2023-02-12T07:51:50.552Z,15.50
2023-02-12T07:54:19.954Z,15.37
2023-02-12T07:56:49.530Z,16.47
2023-02-12T07:59:20.817Z,16.03
2023-02-12T08:01:51.016Z,16.00
2023-02-12T08:04:23.187Z,15.97
2023-02-12T08:06:53.867Z,15.30
2023-02-12T08:09:23.983Z,16.10
2023-02-12T08:11:53.865Z,15.40
2023-02-12T08:14:24.010Z,16.17
2023-02-12T08:16:54.311Z,17.40
2023-02-12T08:19:26.744Z,15.80
2023-02-12T08:21:57.123Z,15.53
2023-02-12T08:24:26.876Z,14.93
2023-02-12T08:26:56.244Z,13.90
2023-02-12T08:29:26.532Z,16.67
2023-02-12T08:31:58.012Z,13.97
2023-02-12T08:34:29.593Z,11.90
2023-02-12T08:36:59.718Z,5.30
2023-02-12T08:39:30.163Z,5.20
2023-02-12T08:42:00.208Z,4.77
2023-02-12T08:44:29.857Z,5.40
2023-02-12T08:46:59.469Z,4.90
2023-02-12T08:49:31.096Z,5.07
2023-02-12T08:52:02.021Z,5.63
2023-02-12T08:54:32.900Z,5.50
2023-02-12T08:57:03.979Z,6.03
2023-02-12T08:59:33.411Z,5.07
2023-02-12T09:02:04.294Z,5.50
2023-02-12T09:04:36.194Z,5.87
2023-02-12T09:07:05.646Z,4.80
2023-02-12T09:09:34.977Z,4.93
2023-02-12T09:12:04.407Z,5.50
2023-02-12T09:14:33.657Z,5.00
2023-02-12T09:17:03.041Z,4.73
2023-02-12T09:19:32.363Z,4.70
2023-02-12T09:22:03.223Z,5.40
2023-02-12T09:24:33.240Z,4.23
2023-02-12T09:27:02.604Z,4.47
2023-02-12T09:29:32.053Z,4.77
2023-02-12T09:32:02.821Z,4.00
2023-02-12T09:34:32.247Z,4.83
2023-02-12T09:37:01.475Z,4.57
2023-02-12T09:39:32.522Z,4.23
2023-02-12T09:42:19.798Z,4.80
2023-02-12T09:44:53.236Z,4.57
2023-02-12T09:47:26.129Z,4.37
2023-02-12T09:50:03.467Z,4.90
2023-02-12T09:52:33.250Z,4.40
2023-02-12T09:55:04.426Z,4.17
2023-02-12T09:57:36.394Z,4.53
2023-02-12T10:00:07.916Z,4.80
2023-02-12T10:02:38.444Z,4.40
2023-02-12T10:05:08.628Z,4.50
2023-02-12T10:07:42.683Z,4.40
2023-02-12T10:10:19.039Z,4.37
2023-02-12T10:12:52.573Z,5.03
2023-02-12T10:15:27.970Z,4.60
2023-02-12T10:18:02.812Z,4.67
2023-02-12T10:20:49.751Z,4.47
2023-02-12T10:23:26.911Z,5.03
2023-02-12T10:25:59.282Z,4.57
2023-02-12T10:28:31.335Z,4.70
2023-02-12T10:31:02.053Z,4.70
2023-02-12T10:36:19.100Z,20.03
2023-02-12T10:38:51.497Z,5.77
2023-02-12T10:41:21.227Z,11.97
2023-02-12T10:43:50.712Z,14.80
2023-02-12T10:46:20.245Z,15.13
2023-02-12T10:48:54.137Z,15.00
2023-02-12T10:51:32.432Z,17.07
2023-02-12T10:54:22.150Z,10.40
2023-02-12T10:56:51.760Z,12.70
2023-02-12T10:59:25.104Z,9.10
2023-02-12T11:01:54.582Z,9.10
2023-02-12T11:04:27.289Z,6.83
2023-02-12T11:07:02.515Z,7.40
2023-02-12T11:09:32.569Z,6.63
2023-02-12T11:12:01.838Z,6.60
2023-02-12T11:14:31.743Z,6.53
2023-02-12T11:17:02.985Z,5.87
2023-02-12T11:19:34.602Z,6.07
2023-02-12T11:22:09.507Z,7.23
2023-02-12T11:24:39.742Z,6.60
2023-02-12T11:27:22.126Z,9.60
2023-02-12T11:30:06.213Z,6.67
2023-02-12T11:32:35.566Z,7.80
2023-02-12T11:35:08.668Z,7.50
2023-02-12T11:37:42.366Z,7.30
2023-02-12T11:40:19.474Z,8.80
2023-02-12T11:42:51.400Z,8.30
2023-02-12T11:45:22.702Z,45.67
2023-02-12T11:47:52.878Z,9.63
2023-02-12T11:50:26.589Z,9.20
2023-02-12T11:53:00.022Z,9.67
2023-02-12T11:55:33.539Z,10.07
2023-02-12T11:58:07.769Z,9.27
2023-02-12T12:00:39.762Z,9.67
2023-02-12T12:03:13.522Z,9.53
2023-02-12T12:05:46.626Z,9.90
2023-02-12T12:08:22.205Z,9.77
2023-02-12T12:10:53.106Z,7.57
2023-02-12T12:13:26.036Z,8.70
2023-02-12T12:16:19.812Z,8.93
2023-02-12T12:19:08.623Z,9.50
2023-02-12T12:21:39.924Z,9.43
2023-02-12T12:24:15.957Z,11.13
2023-02-12T12:26:49.733Z,9.63
2023-02-12T12:29:23.047Z,9.50
2023-02-12T12:31:54.872Z,9.17
2023-02-12T12:34:25.301Z,8.10
2023-02-12T12:37:13.417Z,9.30
2023-02-12T12:39:47.112Z,7.23
2023-02-12T12:42:30.699Z,9.70
2023-02-12T12:45:08.824Z,8.27
2023-02-12T12:47:41.576Z,7.93
2023-02-12T12:50:23.984Z,6.70
2023-02-12T12:53:08.025Z,7.60
2023-02-12T12:55:50.696Z,6.47
2023-02-12T12:58:24.460Z,5.80
2023-02-12T13:01:08.533Z,6.33
2023-02-12T13:03:43.686Z,5.67
2023-02-12T13:06:24.995Z,5.77
2023-02-12T13:09:15.136Z,6.50
2023-02-12T13:11:52.631Z,6.47
2023-02-12T13:14:30.210Z,5.83
2023-02-12T13:17:03.131Z,6.03
2023-02-12T13:19:39.807Z,6.60
2023-02-12T13:22:11.869Z,5.27
2023-02-12T13:24:46.083Z,6.60
2023-02-12T13:27:19.080Z,7.20
2023-02-12T13:29:50.608Z,5.43
2023-02-12T13:32:24.603Z,5.00
2023-02-12T13:34:55.784Z,5.60
2023-02-12T13:37:32.643Z,5.90
2023-02-12T13:40:04.804Z,5.20
2023-02-12T13:42:41.091Z,6.17
2023-02-12T13:45:18.322Z,5.17
2023-02-12T13:47:50.181Z,5.40
2023-02-12T13:50:25.323Z,5.17
2023-02-12T13:52:57.892Z,6.13
2023-02-12T13:55:29.129Z,5.70
2023-02-12T13:58:17.121Z,6.03
2023-02-12T14:01:04.525Z,5.50
2023-02-12T14:03:36.254Z,5.30
2023-02-12T14:06:25.122Z,5.13
2023-02-12T14:08:55.788Z,4.87
2023-02-12T14:11:26.613Z,5.33
2023-02-12T14:13:57.664Z,5.70
2023-02-12T14:16:39.933Z,5.97
2023-02-12T14:19:27.754Z,7.27
2023-02-12T14:21:58.466Z,5.80
2023-02-12T14:24:49.308Z,5.70
2023-02-12T14:27:24.033Z,5.60
2023-02-12T14:30:03.512Z,5.73
2023-02-12T14:32:50.372Z,5.53
2023-02-12T14:35:36.504Z,6.80
2023-02-12T14:38:30.358Z,6.07
2023-02-12T14:41:34.486Z,6.20
2023-02-12T14:44:23.402Z,5.60
2023-02-12T14:46:54.353Z,4.93
2023-02-12T14:49:26.207Z,5.07
2023-02-12T14:52:00.511Z,5.70
2023-02-12T14:54:33.053Z,5.27
2023-02-12T14:57:03.805Z,5.50
2023-02-12T14:59:34.570Z,5.50
2023-02-12T15:02:05.137Z,5.43
2023-02-12T15:04:35.868Z,6.60
2023-02-12T15:07:08.582Z,6.80
2023-02-12T15:09:41.953Z,5.93
2023-02-12T15:12:14.560Z,5.50
2023-02-12T15:14:47.281Z,5.50
2023-02-12T15:17:18.969Z,5.47
2023-02-12T15:19:50.833Z,5.07
2023-02-12T15:22:22.551Z,5.27
2023-02-12T15:24:53.485Z,5.53
2023-02-12T15:27:23.272Z,6.40
2023-02-12T15:29:53.878Z,6.50
2023-02-12T15:32:25.890Z,6.10
2023-02-12T15:34:55.519Z,5.17
2023-02-12T15:37:26.939Z,5.40
2023-02-12T15:39:59.468Z,6.17
2023-02-12T15:42:30.741Z,4.97
2023-02-12T15:45:18.910Z,5.37
2023-02-12T15:47:57.289Z,5.13
2023-02-12T15:50:26.715Z,6.50
2023-02-12T15:52:56.847Z,5.10
2023-02-12T15:55:28.584Z,5.67
2023-02-12T15:57:59.174Z,6.10
2023-02-12T16:00:33.106Z,7.20
2023-02-12T16:03:03.027Z,6.97
2023-02-12T16:05:34.808Z,6.30
2023-02-12T16:08:05.375Z,5.77
2023-02-12T16:10:36.515Z,6.30
2023-02-12T16:13:06.382Z,5.33
2023-02-12T16:15:38.433Z,5.80
2023-02-12T16:18:08.253Z,5.80
2023-02-12T16:20:37.496Z,5.60
2023-02-12T16:23:08.092Z,6.27
2023-02-12T16:25:40.552Z,5.80
2023-02-12T16:28:14.663Z,11.20
2023-02-12T16:30:45.253Z,7.17
2023-02-12T16:33:29.217Z,5.80
2023-02-12T16:36:02.752Z,6.17
2023-02-12T16:38:42.585Z,5.30
2023-02-12T16:41:23.766Z,5.87
2023-02-12T16:43:54.112Z,5.93
2023-02-12T16:46:23.371Z,6.23
2023-02-12T16:48:53.917Z,5.80
2023-02-12T16:51:24.244Z,6.60
2023-02-12T16:53:54.176Z,7.20
2023-02-12T16:56:25.965Z,7.20
2023-02-12T16:58:56.184Z,8.13
2023-02-12T17:01:27.030Z,7.13
2023-02-12T17:03:57.857Z,5.23
2023-02-12T17:06:28.116Z,6.40
2023-02-12T17:08:57.862Z,6.80
2023-02-12T17:11:29.828Z,6.57
2023-02-12T17:13:59.322Z,6.83
2023-02-12T17:16:31.503Z,7.27
2023-02-12T17:19:01.683Z,6.30
2023-02-12T17:21:31.835Z,5.87
2023-02-12T17:24:01.227Z,9.10
2023-02-12T17:26:31.907Z,8.40
2023-02-12T17:29:05.581Z,7.27
2023-02-12T17:31:35.245Z,6.80
2023-02-12T17:34:04.781Z,5.70
2023-02-12T17:36:34.069Z,6.23
2023-02-12T17:39:04.831Z,6.37
2023-02-12T17:41:35.748Z,6.80
2023-02-12T17:44:05.035Z,6.67
2023-02-12T17:46:34.551Z,6.77
2023-02-12T17:49:03.883Z,7.87
2023-02-12T17:51:33.355Z,6.60
2023-02-12T17:54:02.590Z,8.50
2023-02-12T17:56:31.734Z,7.00
2023-02-12T17:59:02.503Z,7.40
2023-02-12T18:01:31.914Z,7.63
2023-02-12T18:04:01.138Z,7.10
2023-02-12T18:06:31.756Z,7.47
2023-02-12T18:09:02.041Z,7.20
2023-02-12T18:11:32.295Z,8.50
2023-02-12T18:14:03.712Z,8.60
2023-02-12T18:16:34.146Z,8.20
2023-02-12T18:19:04.574Z,9.90
2023-02-12T18:21:35.246Z,8.13
2023-02-12T18:24:04.630Z,8.50
2023-02-12T18:26:34.097Z,8.33
2023-02-12T18:29:04.918Z,8.13
2023-02-12T18:31:35.391Z,8.30
2023-02-12T18:34:06.093Z,8.03
2023-02-12T18:36:35.435Z,9.20
2023-02-12T18:39:04.582Z,8.73
2023-02-12T18:41:36.014Z,11.70
2023-02-12T18:44:06.919Z,8.53
2023-02-12T18:46:36.190Z,8.90
2023-02-12T18:49:06.567Z,8.30
2023-02-12T18:51:37.507Z,9.47
2023-02-12T18:54:08.058Z,9.00
2023-02-12T18:56:38.294Z,9.30
2023-02-12T18:59:09.170Z,9.10
2023-02-12T19:01:41.695Z,9.67
2023-02-12T19:04:12.904Z,10.53
2023-02-12T19:06:43.442Z,11.50
2023-02-12T19:09:13.919Z,8.70
2023-02-12T19:11:45.974Z,8.80
2023-02-12T19:14:17.270Z,9.20
2023-02-12T19:16:47.186Z,10.00
2023-02-12T19:19:16.810Z,8.40
2023-02-12T19:21:46.397Z,11.70
2023-02-12T19:24:16.623Z,8.83
2023-02-12T19:26:46.306Z,9.07
2023-02-12T19:29:16.925Z,8.60
2023-02-12T19:31:47.283Z,10.10
2023-02-12T19:34:19.678Z,9.43
2023-02-12T19:36:49.263Z,10.43
2023-02-12T19:39:19.835Z,9.90
2023-02-12T19:41:49.554Z,10.47
2023-02-12T19:44:21.725Z,10.30
2023-02-12T19:46:51.612Z,12.40
2023-02-12T19:49:21.982Z,10.03
2023-02-12T19:51:52.236Z,10.73
2023-02-12T19:54:22.125Z,12.53
2023-02-12T19:56:51.635Z,14.10
2023-02-12T19:59:23.233Z,14.10
2023-02-12T20:01:52.677Z,14.60
2023-02-12T20:04:22.965Z,16.17
2023-02-12T20:06:52.753Z,17.40
2023-02-12T20:09:23.405Z,14.90
2023-02-12T20:11:53.396Z,16.20
2023-02-12T20:14:24.038Z,15.60
2023-02-12T20:16:55.748Z,12.73
2023-02-12T20:19:25.995Z,12.60
2023-02-12T20:21:56.812Z,12.97
2023-02-12T20:24:26.856Z,14.20
2023-02-12T20:26:56.540Z,13.80
2023-02-12T20:29:27.306Z,14.70
2023-02-12T20:31:56.754Z,14.30
2023-02-12T20:34:26.037Z,12.60
2023-02-12T20:36:55.437Z,16.10
2023-02-12T20:39:24.697Z,13.20
2023-02-12T20:41:54.149Z,15.63
2023-02-12T20:44:23.536Z,16.43
2023-02-12T20:46:57.096Z,17.23
2023-02-12T20:49:26.716Z,16.77
2023-02-12T20:51:55.982Z,17.13
2023-02-12T20:54:26.038Z,15.33
2023-02-12T20:56:55.361Z,13.20
2023-02-12T20:59:24.658Z,12.53
2023-02-12T21:01:55.520Z,12.90
2023-02-12T21:04:24.890Z,13.40
2023-02-12T21:06:54.067Z,13.17
2023-02-12T21:09:23.323Z,13.40
2023-02-12T21:11:53.137Z,12.47
2023-02-12T21:14:23.811Z,11.63
2023-02-12T21:16:53.815Z,12.50
2023-02-12T21:19:24.752Z,13.57
2023-02-12T21:21:54.480Z,12.73
2023-02-12T21:24:24.849Z,11.17
2023-02-12T21:26:54.738Z,10.83
2023-02-12T21:29:26.173Z,12.87
2023-02-12T21:31:55.648Z,10.80
2023-02-12T21:34:26.454Z,11.90
2023-02-12T21:36:56.462Z,10.73
2023-02-12T21:39:27.461Z,11.20
2023-02-12T21:41:57.747Z,11.70
2023-02-12T21:44:27.663Z,10.83
2023-02-12T21:46:57.258Z,13.47
2023-02-12T21:49:28.641Z,12.90
2023-02-12T21:51:59.084Z,11.10
2023-02-12T21:54:29.191Z,11.80
2023-02-12T21:56:58.781Z,11.20
2023-02-12T21:59:31.403Z,11.00
2023-02-12T22:02:02.217Z,10.80
2023-02-12T22:04:32.842Z,12.50
2023-02-12T22:07:03.708Z,12.93
2023-02-12T22:09:33.843Z,11.70
2023-02-12T22:15:06.238Z,10.43
2023-02-12T22:17:35.460Z,9.90
2023-02-12T22:20:06.367Z,11.80
2023-02-12T22:22:35.760Z,10.37
2023-02-12T22:25:05.196Z,10.30
2023-02-12T22:27:34.607Z,10.80
2023-02-12T22:30:03.790Z,9.57
2023-02-12T22:32:33.291Z,9.90
2023-02-12T22:35:02.471Z,10.87
2023-02-12T22:37:33.204Z,11.60
2023-02-12T22:40:02.659Z,11.90
2023-02-12T22:42:31.826Z,11.17
2023-02-12T22:45:01.069Z,10.33
2023-02-12T22:47:32.176Z,10.70
2023-02-12T22:50:01.837Z,9.70
2023-02-12T22:52:30.992Z,10.70
2023-02-12T22:55:01.666Z,8.50
2023-02-12T22:57:30.869Z,8.13
2023-02-12T23:00:00.111Z,10.13
2023-02-12T23:02:29.344Z,10.33
2023-02-12T23:04:58.636Z,10.50
2023-02-12T23:07:28.105Z,10.77
2023-02-12T23:09:57.468Z,10.00
2023-02-12T23:12:28.134Z,10.77
2023-02-12T23:14:57.271Z,9.03
2023-02-12T23:17:26.442Z,10.33
2023-02-12T23:19:55.921Z,11.17
2023-02-12T23:22:25.232Z,9.47
2023-02-12T23:24:54.453Z,10.10
2023-02-12T23:27:23.661Z,9.63
2023-02-12T23:29:54.287Z,9.70
2023-02-12T23:32:23.637Z,9.00
2023-02-12T23:34:52.793Z,8.93
2023-02-12T23:37:22.110Z,10.77
2023-02-12T23:39:51.301Z,9.43
2023-02-12T23:42:20.569Z,8.90
2023-02-12T23:44:49.731Z,8.90
2023-02-12T23:47:20.428Z,9.07
2023-02-12T23:49:49.938Z,9.60
2023-02-12T23:52:19.142Z,8.83
2023-02-12T23:54:48.470Z,9.07
2023-02-12T23:57:17.672Z,8.33
2023-02-12T23:59:46.908Z,8.97
